Wye Mills, Maryland
Current Conditions -  °F | °C
As of 5:50 PM on Saturday 25 Oct 2014 (Local Time) from KESN Reporting Station
Clear Clear  
Wind Chill: 66°   Ceiling: Unl
Heat Index: 66°   Visibility: 10mi
Dew Point: 46°   Wind: 6mph
Humidity: 49%   Direction: 240°WSW
Pressure: 29.8"   Gusts: NA
Location:  38.94°N, 76.08°W
Report Text: KESN 252150Z 24005KT 10SM SKC 19/08 A2980
Loading
Personal Weather Stations






























Interactive Weather Map
Tropical Storm Tracking
New forecast layout! Learn more

10-Day Weather Forecast

Advertisements
Track Severe Weather on mobile